Time;durP1;ratioP1;P1;durP2;ratioP2;P2;SDS_P1;SDS_P2;PMS_P1;PMS_P2;Temp;Humidity;BMP_temperature;BMP_pressure;BME280_temperature;BME280_humidity;BME280_pressure;Samples;Min_cycle;Max_cycle;Signal;HPM_P1;HPM_P2
2022/05/24 00:00:32;;;;;;;24.90;20.40;;;;;;;13.87;89.28;100075.97;6224243;23;20008;-79
2022/05/24 00:02:58;;;;;;;22.30;18.92;;;;;;;13.86;89.44;100058.25;6226379;23;20341;-80
2022/05/24 00:05:25;;;;;;;22.63;18.27;;;;;;;13.82;88.87;100066.75;6226088;23;20016;-80
2022/05/24 00:07:51;;;;;;;21.38;17.50;;;;;;;13.79;88.92;100056.38;6226944;23;20004;-80
2022/05/24 00:10:24;;;;;;;19.45;17.27;;;;;;;13.74;88.89;100051.53;6253225;23;20048;-79
2022/05/24 00:12:50;;;;;;;22.25;16.55;;;;;;;13.70;88.57;100052.81;6227840;23;20016;-79
2022/05/24 00:15:24;;;;;;;20.10;15.43;;;;;;;13.69;88.14;100048.50;6255368;23;20004;-79
2022/05/24 00:17:54;;;;;;;20.90;15.55;;;;;;;13.68;88.60;100049.50;6226206;23;20031;-79
2022/05/24 00:20:21;;;;;;;17.95;15.73;;;;;;;13.66;88.75;100054.97;6227216;23;20007;-79
2022/05/24 00:22:46;;;;;;;18.95;16.27;;;;;;;13.63;88.27;100054.47;6227405;23;20143;-79
2022/05/24 00:25:12;;;;;;;22.08;15.38;;;;;;;13.59;88.42;100058.41;6254325;23;20004;-80
2022/05/24 00:27:37;;;;;;;19.35;15.65;;;;;;;13.57;88.82;100058.56;6227385;23;20008;-79
2022/05/24 00:30:03;;;;;;;21.50;15.82;;;;;;;13.53;88.30;100056.41;6227352;23;20095;-80
2022/05/24 00:32:29;;;;;;;17.67;15.05;;;;;;;13.48;88.27;100060.34;6226968;23;20000;-77
2022/05/24 00:34:55;;;;;;;19.38;15.35;;;;;;;13.42;88.25;100054.81;6228995;23;20036;-79
2022/05/24 00:37:24;;;;;;;18.15;14.18;;;;;;;13.38;88.59;100054.28;6229690;23;20000;-78
2022/05/24 00:39:49;;;;;;;;;;;;;;;13.51;86.72;100048.53;6231883;23;20004;-80
2022/05/24 00:42:19;;;;;;;20.38;14.52;;;;;;;13.32;87.81;100044.22;6230096;23;19910;-78
2022/05/24 00:45:11;;;;;;;18.67;13.15;;;;;;;13.27;87.78;100043.81;6229472;23;20008;-78
2022/05/24 00:47:42;;;;;;;18.52;12.43;;;;;;;13.23;88.00;100053.13;6226646;22;20012;-79
2022/05/24 00:50:19;;;;;;;16.88;12.40;;;;;;;13.18;87.49;100058.09;6226994;23;20018;-79
2022/05/24 00:52:50;;;;;;;19.85;11.43;;;;;;;13.12;87.48;100059.53;6252936;23;20008;-79
2022/05/24 00:55:21;;;;;;;19.02;10.15;;;;;;;13.06;87.38;100045.00;6252866;23;20000;-78
2022/05/24 00:57:58;;;;;;;18.63;11.38;;;;;;;13.01;87.39;100057.94;6253980;23;20000;-80
2022/05/24 01:00:23;;;;;;;16.75;10.38;;;;;;;12.99;87.22;100046.59;6227591;23;20012;-78
2022/05/24 01:02:49;;;;;;;18.33;11.38;;;;;;;12.95;87.52;100048.72;6226818;23;20100;-78
2022/05/24 01:05:35;;;;;;;14.70;11.20;;;;;;;12.90;87.18;100039.50;6229051;23;20080;-78
2022/05/24 01:08:00;;;;;;;22.73;11.30;;;;;;;12.88;87.48;100045.00;6229750;23;20008;-79
2022/05/24 01:10:37;;;;;;;14.50;10.38;;;;;;;12.83;87.05;100047.28;6230529;23;20004;-78
2022/05/24 01:13:24;;;;;;;16.60;10.48;;;;;;;12.80;86.90;100044.09;6256288;23;20004;-78
2022/05/24 01:15:51;;;;;;;15.55;10.63;;;;;;;12.76;87.22;100043.56;6229259;23;20000;-79
2022/05/24 01:18:16;;;;;;;16.40;10.68;;;;;;;12.72;87.22;100044.84;6228935;23;20008;-78
2022/05/24 01:20:44;;;;;;;18.25;9.80;;;;;;;12.69;86.54;100040.66;6229402;23;20034;-78
2022/05/24 01:23:26;;;;;;;14.70;9.30;;;;;;;12.69;86.68;100042.47;6256175;23;20035;-78
2022/05/24 01:26:03;;;;;;;17.00;8.82;;;;;;;12.63;86.81;100049.25;6256096;23;20008;-78
2022/05/24 01:28:40;;;;;;;14.63;9.57;;;;;;;12.58;87.36;100056.84;6256512;23;20004;-78
2022/05/24 01:31:06;;;;;;;14.25;8.30;;;;;;;12.55;86.96;100057.16;6227787;23;20024;-78
2022/05/24 01:36:19;;;;;;;15.48;7.90;;;;;;;12.46;86.84;100053.56;6255532;23;20043;-77
2022/05/24 01:38:51;;;;;;;15.27;8.25;;;;;;;12.48;86.70;100056.06;6256738;23;20024;-77
2022/05/24 01:41:22;;;;;;;17.48;8.80;;;;;;;12.45;87.31;100061.69;6229400;23;20004;-78
2022/05/24 01:43:50;;;;;;;14.98;8.50;;;;;;;12.42;86.66;100069.97;6230813;23;20019;-77
2022/05/24 01:46:19;;;;;;;13.88;8.20;;;;;;;12.43;87.15;100063.69;6263510;23;20024;-77
2022/05/24 01:48:53;;;;;;;14.15;7.43;;;;;;;12.39;86.88;100058.66;6229373;23;20004;-78
2022/05/24 01:51:22;;;;;;;16.67;8.27;;;;;;;12.36;87.15;100061.59;6255928;23;20060;-77
2022/05/24 01:53:49;;;;;;;;;;;;;;;12.45;85.58;100057.19;6230211;23;20008;-77
2022/05/24 01:56:18;;;;;;;17.95;7.00;;;;;;;12.31;86.50;100061.22;6231766;23;20382;-77
2022/05/24 01:58:48;;;;;;;12.73;6.57;;;;;;;12.28;86.54;100058.00;6257156;23;20004;-78
2022/05/24 02:01:52;;;;;;;13.32;5.78;;;;;;;12.27;85.78;100051.81;6256828;23;20448;-78
2022/05/24 02:04:19;;;;;;;11.82;5.93;;;;;;;12.20;86.12;100053.41;6230649;23;20016;-79
2022/05/24 02:06:56;;;;;;;11.27;6.03;;;;;;;12.18;86.04;100052.72;6228604;23;20012;-77
2022/05/24 02:09:21;;;;;;;10.45;5.25;;;;;;;12.13;86.48;100049.66;6254742;23;20004;-77
2022/05/24 02:11:47;;;;;;;10.13;5.22;;;;;;;12.11;86.23;100055.16;6255639;23;20015;-77
2022/05/24 02:14:24;;;;;;;13.25;5.32;;;;;;;12.07;86.00;100060.91;6255826;23;20031;-77
2022/05/24 02:16:57;;;;;;;11.05;4.85;;;;;;;12.05;85.94;100062.88;6258452;23;20004;-77
2022/05/24 02:19:24;;;;;;;12.02;5.03;;;;;;;12.00;86.04;100060.66;6258563;23;20001;-77
2022/05/24 02:21:54;;;;;;;9.85;4.40;;;;;;;11.98;85.85;100060.78;6257124;23;20064;-80
2022/05/24 02:24:23;;;;;;;8.38;4.43;;;;;;;11.97;86.19;100074.25;6228807;23;20012;-80
2022/05/24 02:26:50;;;;;;;8.35;4.40;;;;;;;11.97;86.98;100069.78;6228051;23;20008;-80
2022/05/24 02:29:17;;;;;;;10.90;4.75;;;;;;;11.96;86.42;100056.63;6229268;23;20015;-80
2022/05/24 02:31:44;;;;;;;12.00;3.97;;;;;;;11.95;86.00;100062.91;6229413;23;19996;-78
2022/05/24 02:34:10;;;;;;;8.85;4.43;;;;;;;11.94;85.64;100067.41;6229520;23;20035;-77
2022/05/24 02:36:36;;;;;;;12.75;4.07;;;;;;;11.93;85.93;100065.72;6255534;23;20000;-78
2022/05/24 02:39:03;;;;;;;10.57;4.03;;;;;;;11.91;85.45;100070.34;6229893;23;20061;-79
2022/05/24 02:41:28;;;;;;;11.77;4.40;;;;;;;11.91;86.09;100070.34;6227956;23;20012;-79
2022/05/24 02:43:54;;;;;;;11.98;4.10;;;;;;;11.90;86.07;100067.78;6229657;23;20031;-79
2022/05/24 02:46:19;;;;;;;10.75;3.65;;;;;;;11.91;85.69;100067.69;6256825;23;20008;-78
2022/05/24 02:48:45;;;;;;;8.35;3.53;;;;;;;11.90;86.32;100065.97;6257794;22;20477;-78
2022/05/24 02:51:12;;;;;;;6.15;3.47;;;;;;;11.93;85.75;100064.88;6259262;23;20007;-79
2022/05/24 02:53:40;;;;;;;11.40;3.30;;;;;;;11.90;85.54;100063.31;6231864;23;20004;-78
2022/05/24 02:56:07;;;;;;;8.88;3.53;;;;;;;11.88;86.37;100077.75;6260226;23;20000;-80
2022/05/24 02:58:32;;;;;;;11.05;3.58;;;;;;;11.88;86.44;100064.44;6260955;23;20287;-78
2022/05/24 03:00:58;;;;;;;11.60;3.80;;;;;;;11.89;85.58;100063.44;6241002;22;20058;-81
2022/05/24 03:03:23;;;;;;;10.25;3.60;;;;;;;11.88;85.84;100056.47;6275344;22;20024;-81
2022/05/24 03:05:48;;;;;;;13.40;3.47;;;;;;;11.84;85.79;100061.25;6244160;23;20017;-80
2022/05/24 03:10:57;;;;;;;11.38;3.97;;;;;;;11.74;85.82;100069.25;6260755;23;20456;-79
2022/05/24 03:16:09;;;;;;;12.13;4.03;;;;;;;11.73;86.43;100066.72;6266423;23;20019;-78
2022/05/24 03:18:34;;;;;;;13.52;3.80;;;;;;;11.69;87.27;100058.22;6237554;23;20015;-78
2022/05/24 03:20:59;;;;;;;11.18;3.70;;;;;;;11.68;86.55;100061.84;6231569;23;20055;-78
2022/05/24 03:23:24;;;;;;;10.33;3.73;;;;;;;11.71;86.20;100071.34;6257334;23;20012;-78
2022/05/24 03:25:50;;;;;;;8.38;4.05;;;;;;;11.69;86.19;100071.50;6232396;23;20250;-77
2022/05/24 03:28:19;;;;;;;10.10;3.83;;;;;;;11.69;86.50;100074.16;6259368;23;20051;-77
2022/05/24 03:30:44;;;;;;;9.65;4.13;;;;;;;11.68;86.99;100072.47;6231331;23;20312;-77
2022/05/24 03:33:10;;;;;;;12.55;3.88;;;;;;;11.68;86.23;100076.97;6258875;23;20032;-77
2022/05/24 03:35:36;;;;;;;11.35;4.25;;;;;;;11.66;86.14;100075.28;6230892;23;20019;-79
2022/05/24 03:38:01;;;;;;;9.82;4.18;;;;;;;11.65;87.00;100073.59;6229679;23;20004;-79
2022/05/24 03:40:27;;;;;;;10.30;4.30;;;;;;;11.67;86.91;100065.47;6229899;23;20030;-78
2022/05/24 03:42:54;;;;;;;11.43;5.30;;;;;;;11.68;86.66;100074.31;6231781;23;20004;-78
2022/05/24 03:45:20;;;;;;;12.55;5.07;;;;;;;11.65;86.46;100073.59;6231901;23;20392;-78
2022/05/24 03:47:45;;;;;;;12.82;5.30;;;;;;;11.65;87.08;100073.59;6204716;22;20019;-77
2022/05/24 03:50:11;;;;;;;11.50;5.70;;;;;;;11.64;86.91;100068.41;6256136;23;20353;-77
2022/05/24 03:52:36;;;;;;;9.57;5.10;;;;;;;11.63;86.66;100077.41;6228871;23;20278;-78
2022/05/24 03:55:02;;;;;;;12.02;4.68;;;;;;;11.63;86.40;100094.19;6206257;23;20012;-79
2022/05/24 04:00:14;;;;;;;12.07;5.07;;;;;;;11.61;87.39;100101.47;6257618;23;20064;-78
2022/05/24 04:02:39;;;;;;;11.27;5.35;;;;;;;11.60;87.13;100099.78;6233584;23;20015;-79
2022/05/24 04:05:05;;;;;;;10.45;4.60;;;;;;;11.59;86.85;100114.09;6229972;23;20043;-78
2022/05/24 04:07:31;;;;;;;10.82;4.65;;;;;;;11.59;87.27;100123.84;6254971;23;20090;-79
2022/05/24 04:09:56;;;;;;;14.48;5.22;;;;;;;11.60;86.73;100129.03;6257209;23;20031;-79
2022/05/24 04:12:21;;;;;;;11.80;4.30;;;;;;;11.63;87.36;100136.75;6227074;23;20058;-78
2022/05/24 04:14:47;;;;;;;9.23;4.45;;;;;;;11.65;87.32;100144.59;6228919;23;20008;-80
2022/05/24 04:17:12;;;;;;;14.93;4.20;;;;;;;11.66;87.22;100131.13;6227108;23;20000;-79
2022/05/24 04:19:37;;;;;;;9.15;3.55;;;;;;;11.67;87.54;100131.97;6230008;23;20020;-78
2022/05/24 04:22:03;;;;;;;13.82;4.10;;;;;;;11.69;86.43;100118.53;6254549;23;20004;-78
2022/05/24 04:24:28;;;;;;;11.18;3.95;;;;;;;11.66;86.74;100101.88;6228115;23;20072;-78
2022/05/24 04:26:53;;;;;;;8.25;3.67;;;;;;;11.67;86.37;100094.72;6261908;23;20096;-78
2022/05/24 04:29:18;;;;;;;8.60;4.00;;;;;;;11.69;86.98;100102.56;6255122;23;20057;-78
2022/05/24 04:31:44;;;;;;;9.07;3.70;;;;;;;11.68;86.24;100111.56;6227033;23;20255;-78
2022/05/24 04:34:09;;;;;;;14.40;4.20;;;;;;;11.69;86.29;100113.22;6227879;23;20326;-78
2022/05/24 04:36:34;;;;;;;9.60;3.45;;;;;;;11.71;86.34;100143.16;6252375;23;20026;-78
2022/05/24 04:39:00;;;;;;;13.18;3.72;;;;;;;11.70;86.56;100158.28;6254792;23;20007;-78
2022/05/24 04:44:10;;;;;;;12.32;4.10;;;;;;;11.71;86.87;100135.19;6254432;23;20042;-78
2022/05/24 04:49:22;;;;;;;9.25;3.50;;;;;;;11.70;86.43;100142.34;6255144;22;20094;-78
2022/05/24 04:51:48;;;;;;;12.05;3.65;;;;;;;11.69;86.73;100146.00;6229558;23;20031;-77
2022/05/24 04:54:13;;;;;;;9.38;3.47;;;;;;;11.68;86.60;100146.13;6255613;23;20000;-78
2022/05/24 04:56:38;;;;;;;11.70;3.70;;;;;;;11.69;85.93;100150.44;6228764;23;20004;-78
2022/05/24 04:59:04;;;;;;;14.32;3.30;;;;;;;11.65;86.85;100164.03;6257105;23;20011;-77
2022/05/24 05:01:30;;;;;;;9.55;3.10;;;;;;;11.63;86.92;100165.16;6255234;23;20092;-79
2022/05/24 05:03:55;;;;;;;9.40;3.35;;;;;;;11.62;86.77;100174.97;6227078;23;20319;-79
2022/05/24 05:06:21;;;;;;;8.02;3.30;;;;;;;11.64;86.87;100178.34;6230380;23;20012;-78
2022/05/24 05:08:47;;;;;;;12.20;3.13;;;;;;;11.63;87.33;100192.59;6256587;23;20004;-78
2022/05/24 05:11:12;;;;;;;9.95;2.95;;;;;;;11.63;86.71;100200.56;6261183;23;20012;-78
2022/05/24 05:13:37;;;;;;;9.07;3.20;;;;;;;11.60;86.73;100194.69;6261611;23;20004;-78
2022/05/24 05:16:03;;;;;;;9.82;3.42;;;;;;;11.63;86.76;100213.88;6260896;23;20456;-79
2022/05/24 05:18:28;;;;;;;12.70;3.17;;;;;;;11.60;86.50;100197.38;6259566;23;20484;-79
2022/05/24 05:20:53;;;;;;;11.32;4.03;;;;;;;11.62;86.85;100190.94;6233628;23;20011;-78
2022/05/24 05:23:19;;;;;;;8.32;3.08;;;;;;;11.63;86.46;100189.94;6260826;23;20011;-78
2022/05/24 05:25:49;;;;;;;14.65;3.50;;;;;;;11.64;86.68;100183.66;6263015;23;20425;-78
2022/05/24 05:28:16;;;;;;;12.73;3.53;;;;;;;11.64;86.63;100196.94;6261756;23;20099;-78
2022/05/24 05:33:25;;;;;;;10.32;3.35;;;;;;;11.66;85.75;100200.31;6259645;23;20020;-77
2022/05/24 05:35:51;;;;;;;10.65;3.15;;;;;;;11.66;85.87;100189.66;6256682;23;20330;-78
2022/05/24 05:38:17;;;;;;;13.65;3.33;;;;;;;11.65;85.93;100180.00;6257893;23;20000;-77
2022/05/24 05:40:43;;;;;;;7.53;3.03;;;;;;;11.67;85.59;100177.19;6259352;23;20012;-77
2022/05/24 05:43:08;;;;;;;12.30;3.05;;;;;;;11.67;85.41;100185.16;6259334;23;20000;-78
2022/05/24 05:45:34;;;;;;;9.80;3.15;;;;;;;11.68;86.36;100184.19;6258667;23;20000;-78
2022/05/24 05:48:01;;;;;;;9.18;3.17;;;;;;;11.70;84.85;100179.56;6255414;22;20004;-79
2022/05/24 05:50:26;;;;;;;12.98;3.30;;;;;;;11.71;85.35;100196.38;6260192;23;20001;-78
2022/05/24 05:52:51;;;;;;;9.13;3.15;;;;;;;11.72;85.54;100198.06;6260130;23;20440;-77
2022/05/24 05:55:19;;;;;;;12.77;3.70;;;;;;;11.74;85.16;100220.91;6262757;23;20052;-78
2022/05/24 05:57:45;;;;;;;7.78;2.92;;;;;;;11.75;84.15;100227.88;6259965;23;20062;-80
2022/05/24 06:00:12;;;;;;;9.77;2.92;;;;;;;11.75;84.77;100238.53;6271291;22;19988;-77
2022/05/24 06:02:37;;;;;;;11.35;3.20;;;;;;;11.77;85.08;100233.06;6271465;22;20017;-76
2022/05/24 06:05:04;;;;;;;10.13;2.95;;;;;;;11.77;84.47;100235.72;6271202;23;20068;-77
2022/05/24 06:07:30;;;;;;;9.88;3.22;;;;;;;11.80;84.83;100235.44;6271645;23;20003;-79
2022/05/24 06:09:55;;;;;;;9.38;3.08;;;;;;;11.82;84.82;100237.00;6273121;22;20325;-77
2022/05/24 06:12:20;;;;;;;11.50;2.80;;;;;;;11.84;84.41;100237.69;6270862;22;20004;-76
2022/05/24 06:14:45;;;;;;;10.20;3.08;;;;;;;11.87;84.11;100241.03;6271591;23;20271;-78
2022/05/24 06:17:11;;;;;;;12.48;3.20;;;;;;;11.95;84.91;100236.72;6269621;23;20012;-76
2022/05/24 06:19:37;;;;;;;10.48;3.08;;;;;;;12.14;85.13;100243.84;6270426;23;19988;-76
2022/05/24 06:22:03;;;;;;;8.82;2.53;;;;;;;12.23;83.53;100246.66;6246275;23;20012;-77
2022/05/24 06:24:29;;;;;;;7.60;2.67;;;;;;;12.38;83.84;100248.69;6273289;22;20096;-77
2022/05/24 06:26:54;;;;;;;12.05;2.78;;;;;;;12.51;82.26;100244.91;6272204;22;20004;-76
2022/05/24 06:29:19;;;;;;;7.90;2.60;;;;;;;12.53;80.64;100258.91;6273216;22;19997;-77
2022/05/24 06:31:45;;;;;;;10.32;2.63;;;;;;;12.52;79.72;100242.09;6273875;22;20270;-78
2022/05/24 06:34:11;;;;;;;7.05;2.30;;;;;;;12.77;81.55;100242.41;6274840;22;19988;-79
2022/05/24 06:36:37;;;;;;;9.52;2.42;;;;;;;12.98;80.09;100242.19;6247967;23;19989;-79
2022/05/24 06:39:03;;;;;;;9.80;2.40;;;;;;;13.29;80.49;100248.03;6274766;22;20023;-80
2022/05/24 06:41:28;;;;;;;9.05;2.70;;;;;;;13.56;79.71;100251.69;6273724;22;19992;-79
2022/05/24 06:43:54;;;;;;;10.95;2.45;;;;;;;13.69;75.87;100254.00;6273842;22;20023;-79
2022/05/24 06:46:20;;;;;;;7.22;2.00;;;;;;;13.85;76.08;100264.78;6274531;22;19991;-78
2022/05/24 06:48:45;;;;;;;5.05;1.95;;;;;;;13.93;74.31;100263.19;6274544;22;20012;-77
2022/05/24 06:51:16;;;;;;;6.60;2.30;;;;;;;14.13;73.92;100279.88;6274657;22;19988;-76
2022/05/24 06:53:43;;;;;;;6.97;2.00;;;;;;;14.27;75.27;100289.16;6274700;22;19999;-76
2022/05/24 06:56:09;;;;;;;9.57;2.10;;;;;;;14.59;74.33;100280.59;6274745;22;20000;-76
2022/05/24 06:58:47;;;;;;;6.50;2.20;;;;;;;14.82;74.32;100285.38;6274807;22;20012;-78
2022/05/24 07:04:13;;;;;;;6.45;1.98;;;;;;;14.72;70.84;100277.47;6124080;23;20066;-78
2022/05/24 07:06:39;;;;;;;4.95;1.95;;;;;;;14.78;69.80;100283.03;6242523;22;20020;-77
2022/05/24 07:09:04;;;;;;;5.57;1.83;;;;;;;14.76;68.73;100287.69;6274698;22;20023;-76
2022/05/24 07:11:29;;;;;;;7.07;1.80;;;;;;;14.83;70.67;100289.75;6273704;22;20251;-76
2022/05/24 07:13:55;;;;;;;10.70;2.03;;;;;;;14.87;70.32;100308.00;6272407;23;19984;-76
2022/05/24 07:16:20;;;;;;;6.43;1.88;;;;;;;14.89;67.90;100310.47;6272134;23;20246;-77
2022/05/24 07:18:46;;;;;;;4.90;2.00;;;;;;;14.83;68.58;100301.28;6273021;23;19984;-78
2022/05/24 07:21:11;;;;;;;6.95;2.03;;;;;;;14.83;69.64;100303.13;6273706;22;20258;-76
2022/05/24 07:23:38;;;;;;;5.88;1.77;;;;;;;14.80;68.16;100309.59;6272196;23;20019;-76
2022/05/24 07:26:14;;;;;;;6.75;1.90;;;;;;;14.78;68.22;100315.09;6272316;23;19984;-76
2022/05/24 07:28:39;;;;;;;6.65;1.40;;;;;;;14.71;66.78;100310.56;6274453;22;19988;-77
2022/05/24 07:31:05;;;;;;;5.43;1.88;;;;;;;14.68;67.45;100309.03;6273938;22;20022;-76
2022/05/24 07:33:30;;;;;;;6.63;2.00;;;;;;;14.65;67.33;100316.53;6273937;22;20035;-77
2022/05/24 07:35:56;;;;;;;5.05;1.83;;;;;;;14.70;68.37;100320.41;6274579;22;20000;-78
2022/05/24 07:38:21;;;;;;;5.35;1.50;;;;;;;14.73;67.16;100319.25;6273485;22;20004;-77
2022/05/24 07:46:17;;;;;;;5.90;1.58;;;;;;;15.16;65.89;100333.53;6273725;22;20059;-79
2022/05/24 07:48:46;;;;;;;7.00;1.60;;;;;;;15.16;65.41;100323.66;6273706;22;19992;-79
2022/05/24 07:51:11;;;;;;;3.17;1.50;;;;;;;15.08;63.70;100317.44;6275240;22;19996;-78
2022/05/24 07:53:37;;;;;;;4.88;2.17;;;;;;;15.01;65.18;100325.28;6274571;22;19988;-77
2022/05/24 07:56:03;;;;;;;5.32;1.85;;;;;;;14.91;63.78;100333.41;6247972;22;20008;-78
2022/05/24 07:58:29;;;;;;;4.25;1.75;;;;;;;14.94;65.28;100334.94;6270526;23;19988;-78
2022/05/24 08:00:56;;;;;;;5.53;2.00;;;;;;;14.97;66.03;100335.44;6274077;22;20056;-79
2022/05/24 08:03:22;;;;;;;4.95;1.90;;;;;;;15.04;65.15;100332.97;6274310;22;19996;-80
2022/05/24 08:05:47;;;;;;;7.45;1.90;;;;;;;15.23;66.72;100339.91;6274277;22;20003;-79
2022/05/24 08:08:14;;;;;;;4.38;1.58;;;;;;;15.29;65.09;100351.81;6274138;22;19992;-77
2022/05/24 08:10:41;;;;;;;5.75;2.15;;;;;;;15.28;64.59;100340.25;6249140;22;19996;-79
2022/05/24 08:13:09;;;;;;;4.70;1.80;;;;;;;15.32;64.46;100347.00;6274210;22;20027;-77
2022/05/24 08:15:35;;;;;;;5.68;2.20;;;;;;;15.38;64.81;100348.16;6274687;22;20055;-76
2022/05/24 08:18:00;;;;;;;4.63;2.25;;;;;;;15.46;64.12;100350.06;6247768;23;19992;-76
2022/05/24 08:20:27;;;;;;;4.63;2.63;;;;;;;15.79;63.77;100351.03;6274574;22;20023;-76
2022/05/24 08:22:53;;;;;;;5.32;2.40;;;;;;;15.87;63.10;100352.84;6274500;22;20035;-78
2022/05/24 08:25:18;;;;;;;4.70;2.45;;;;;;;15.90;63.15;100358.75;6273755;22;19996;-78
2022/05/24 08:27:43;;;;;;;5.57;2.80;;;;;;;16.00;63.98;100357.75;6273705;22;20015;-79
2022/05/24 08:30:12;;;;;;;4.72;2.50;;;;;;;15.95;63.14;100358.22;6273842;22;19992;-79
2022/05/24 08:32:38;;;;;;;6.97;2.40;;;;;;;15.98;63.70;100373.16;6273785;22;20007;-79
2022/05/24 08:35:05;;;;;;;3.67;1.77;;;;;;;16.02;62.62;100378.03;6273834;22;20008;-79
2022/05/24 08:37:31;;;;;;;3.75;2.00;;;;;;;15.94;63.38;100380.69;6273456;22;19996;-79
2022/05/24 08:39:59;;;;;;;3.80;1.77;;;;;;;15.94;62.00;100382.50;6273552;22;19993;-79
2022/05/24 08:43:01;;;;;;;6.78;1.98;;;;;;;15.90;63.36;100390.91;6273995;22;20063;-78
2022/05/24 08:48:57;;;;;;;3.58;1.88;;;;;;;15.86;61.58;100402.91;6273807;22;20035;-78
2022/05/24 08:51:27;;;;;;;4.53;1.80;;;;;;;15.73;61.31;100411.38;6273640;22;20014;-78
2022/05/24 08:53:57;;;;;;;4.20;1.88;;;;;;;15.56;62.51;100411.50;6248878;22;20027;-78
2022/05/24 08:56:31;;;;;;;7.18;1.75;;;;;;;15.57;63.58;100411.34;6274176;22;20018;-78
2022/05/24 08:59:06;;;;;;;3.45;1.70;;;;;;;15.49;61.90;100422.00;6274043;22;19992;-79
2022/05/24 09:01:34;;;;;;;2.38;1.17;;;;;;;15.34;60.21;100424.44;6274093;22;19993;-77
2022/05/24 09:04:01;;;;;;;5.45;1.35;;;;;;;15.23;60.89;100438.06;6273611;22;19992;-78
2022/05/24 09:06:49;;;;;;;4.97;1.55;;;;;;;15.17;62.47;100431.50;6273753;22;20027;-77
2022/05/24 09:09:32;;;;;;;3.77;1.67;;;;;;;15.09;62.75;100440.31;6273745;22;20008;-76
2022/05/24 09:12:29;;;;;;;3.60;1.52;;;;;;;15.09;63.64;100437.66;6274046;22;20048;-77
2022/05/24 09:15:33;;;;;;;5.15;1.35;;;;;;;15.18;63.49;100452.75;6274610;23;20068;-75
2022/05/24 09:18:15;;;;;;;7.07;2.00;;;;;;;15.22;63.72;100449.75;6271309;22;20329;-78
2022/05/24 09:20:42;;;;;;;4.07;2.45;;;;;;;15.23;62.62;100446.09;6273523;22;19988;-78
2022/05/24 09:23:15;;;;;;;4.55;2.17;;;;;;;15.22;62.27;100450.63;6248231;23;19992;-76
2022/05/24 09:25:53;;;;;;;3.58;2.40;;;;;;;15.28;62.81;100452.63;6273629;22;20039;-77
2022/05/24 09:28:18;;;;;;;4.32;2.50;;;;;;;15.20;61.54;100457.94;6273890;22;20020;-77
2022/05/24 09:30:45;;;;;;;5.05;2.63;;;;;;;15.12;61.19;100463.22;6274572;22;20012;-77
2022/05/24 09:33:31;;;;;;;3.53;2.38;;;;;;;15.13;61.78;100454.22;6273939;22;19995;-76
2022/05/24 09:35:59;;;;;;;2.78;2.30;;;;;;;15.11;61.77;100461.56;6271559;22;20085;-77
2022/05/24 09:38:36;;;;;;;3.63;2.72;;;;;;;15.15;60.94;100469.13;6272573;23;19996;-78
2022/05/24 09:41:24;;;;;;;7.60;3.28;;;;;;;15.38;62.36;100470.44;6269661;23;20000;-80
2022/05/24 09:44:12;;;;;;;4.63;3.05;;;;;;;15.52;62.25;100468.00;6271925;23;19984;-77
2022/05/24 09:46:41;;;;;;;5.43;3.28;;;;;;;15.84;60.85;100476.41;6270925;23;19988;-77
2022/05/24 09:49:33;;;;;;;4.65;3.00;;;;;;;16.35;61.70;100474.53;6243747;23;19999;-78
2022/05/24 09:52:12;;;;;;;3.58;3.00;;;;;;;16.77;59.53;100478.09;6270601;23;20012;-77
2022/05/24 09:54:55;;;;;;;4.88;3.15;;;;;;;17.12;58.43;100478.78;6271103;23;19988;-77
2022/05/24 09:57:29;;;;;;;3.50;3.20;;;;;;;17.47;56.98;100480.25;6270330;23;20015;-78
2022/05/24 10:00:12;;;;;;;3.60;3.30;;;;;;;17.81;57.48;100457.66;6271719;23;20004;-77
2022/05/24 10:02:39;;;;;;;4.82;3.42;;;;;;;18.37;59.11;100464.75;6272272;23;19989;-78
2022/05/24 10:05:17;;;;;;;3.85;3.45;;;;;;;18.57;53.86;100473.19;6271521;23;20008;-80
2022/05/24 10:07:56;;;;;;;4.03;3.60;;;;;;;18.72;53.72;100474.13;6274014;23;19995;-78
2022/05/24 10:10:24;;;;;;;;;;;;;;;19.01;55.61;100469.88;6274255;23;20012;-76
2022/05/24 10:13:08;;;;;;;3.17;2.72;;;;;;;19.22;52.41;100477.25;6274013;23;19900;-76
2022/05/24 10:16:00;;;;;;;3.65;2.72;;;;;;;19.28;51.01;100479.19;6272592;23;20011;-76
2022/05/24 10:19:03;;;;;;;5.00;2.90;;;;;;;19.27;51.38;100482.06;6272764;23;20064;-76
2022/05/24 10:22:01;;;;;;;3.05;2.60;;;;;;;19.31;50.79;100483.38;6273458;23;20003;-78
2022/05/24 10:24:51;;;;;;;4.22;3.05;;;;;;;19.26;49.05;100492.00;6272137;23;19988;-77
2022/05/24 10:27:32;;;;;;;3.78;2.85;;;;;;;19.31;49.95;100494.97;6275375;22;20072;-76
2022/05/24 10:30:06;;;;;;;5.93;3.10;;;;;;;19.03;48.91;100498.28;6274723;22;20012;-79
2022/05/24 10:38:46;;;;;;;4.43;2.85;;;;;;;19.16;47.36;100503.03;6274538;22;20014;-78
2022/05/24 10:41:25;;;;;;;4.72;2.92;;;;;;;18.92;48.44;100509.47;6274492;23;19999;-77
2022/05/24 10:43:59;;;;;;;4.55;3.20;;;;;;;18.87;48.85;100511.88;6274549;23;20023;-77
2022/05/24 10:46:40;;;;;;;4.80;3.00;;;;;;;18.86;49.27;100513.69;6270742;23;19984;-77
2022/05/24 10:49:16;;;;;;;4.65;3.42;;;;;;;18.60;49.10;100511.34;6272862;22;19999;-78
2022/05/24 10:51:50;;;;;;;3.47;3.17;;;;;;;18.53;48.55;100507.69;6274340;22;20093;-77
2022/05/24 10:54:45;;;;;;;3.92;3.00;;;;;;;18.65;50.62;100511.66;6247799;23;19985;-79
2022/05/24 10:57:20;;;;;;;3.80;3.20;;;;;;;18.55;50.42;100511.06;6208286;23;19992;-78
2022/05/24 10:59:55;;;;;;;4.13;3.50;;;;;;;18.63;51.01;100512.84;6273567;22;20038;-79
2022/05/24 11:02:44;;;;;;;4.93;2.50;;;;;;;18.64;52.52;100514.53;6273301;22;19989;-80
2022/05/24 11:05:32;;;;;;;5.47;2.50;;;;;;;18.53;51.52;100512.25;6275258;22;19992;-78
2022/05/24 11:08:30;;;;;;;4.15;2.20;;;;;;;18.78;53.46;100513.72;6274860;22;20016;-78
2022/05/24 11:11:00;;;;;;;3.20;2.63;;;;;;;18.96;50.22;100518.84;6273385;22;19992;-79
2022/05/24 11:14:04;;;;;;;3.63;2.60;;;;;;;19.34;52.01;100510.78;6274168;22;20019;-77
2022/05/24 11:16:38;;;;;;;3.25;3.00;;;;;;;19.21;48.61;100516.78;6274655;22;20010;-78
2022/05/24 11:19:09;;;;;;;3.30;2.80;;;;;;;19.34;50.26;100516.16;6269065;23;19996;-77
2022/05/24 11:21:41;;;;;;;4.70;2.88;;;;;;;19.66;46.89;100510.63;6272134;23;20498;-77
2022/05/24 11:24:17;;;;;;;3.58;3.13;;;;;;;19.89;47.26;100513.25;6274258;22;20003;-78
2022/05/24 11:26:54;;;;;;;3.90;3.00;;;;;;;19.88;46.23;100516.97;6274939;22;20014;-80
2022/05/24 11:29:30;;;;;;;5.45;2.60;;;;;;;19.96;46.08;100519.56;6274191;22;19996;-80
2022/05/24 11:32:02;;;;;;;4.28;2.40;;;;;;;19.90;45.65;100531.09;6274774;22;20008;-80
2022/05/24 11:34:31;;;;;;;6.30;2.50;;;;;;;19.79;45.59;100527.00;6273805;22;20018;-77
2022/05/24 11:37:03;;;;;;;10.60;3.10;;;;;;;19.89;46.93;100529.44;6274807;23;19988;-78
2022/05/24 11:39:38;;;;;;;15.27;3.65;;;;;;;20.14;47.70;100528.09;6272673;23;19996;-80
2022/05/24 11:42:25;;;;;;;6.40;2.40;;;;;;;20.48;46.94;100533.88;6273341;23;20031;-78
2022/05/24 11:44:53;;;;;;;2.85;2.55;;;;;;;20.49;44.03;100539.09;6273987;23;20087;-79
2022/05/24 11:47:39;;;;;;;3.72;2.47;;;;;;;20.81;44.79;100533.44;6273925;22;20019;-77
2022/05/24 11:50:08;;;;;;;5.88;2.80;;;;;;;20.53;45.06;100539.53;6274173;22;20012;-78
2022/05/24 11:52:41;;;;;;;4.97;2.28;;;;;;;20.81;45.74;100544.22;6274105;22;20007;-76
2022/05/24 11:55:08;;;;;;;3.90;2.38;;;;;;;21.13;44.98;100542.03;6273988;22;19995;-77
2022/05/24 11:57:41;;;;;;;2.47;2.30;;;;;;;21.31;43.17;100546.97;6273932;23;19996;-79
2022/05/24 12:00:10;;;;;;;2.67;2.47;;;;;;;20.98;42.62;100542.94;6246601;22;20000;-79
2022/05/24 12:07:54;;;;;;;4.72;2.28;;;;;;;20.94;42.66;100546.25;6272090;23;19992;-77
2022/05/24 12:08:34;;;;;;;2.30;2.10;;;;;;;20.78;45.33;100558.94;6272876;22;20015;-78
2022/05/24 12:11:05;;;;;;;3.72;2.00;;;;;;;20.51;45.50;100577.50;6273354;22;19992;-80
2022/05/24 12:13:54;;;;;;;5.82;1.90;;;;;;;19.97;47.12;100577.84;6274304;22;19999;-80
2022/05/24 12:16:43;;;;;;;2.90;1.60;;;;;;;19.68;48.73;100587.53;6274523;22;19988;-80